createdAt,value
2022-12-12T00:01:32.614Z,10.40
2022-12-12T00:04:05.639Z,10.60
2022-12-12T00:06:37.613Z,11.40
2022-12-12T00:09:09.555Z,10.30
2022-12-12T00:11:41.919Z,11.20
2022-12-12T00:14:13.828Z,11.80
2022-12-12T00:16:45.565Z,13.80
2022-12-12T00:19:17.109Z,13.30
2022-12-12T00:21:48.626Z,13.90
2022-12-12T00:24:20.225Z,13.90
2022-12-12T00:26:51.884Z,15.00
2022-12-12T00:29:23.538Z,12.20
2022-12-12T00:31:55.056Z,13.50
2022-12-12T00:34:26.551Z,12.30
2022-12-12T00:36:58.118Z,13.20
2022-12-12T00:39:29.606Z,13.70
2022-12-12T00:42:01.148Z,12.40
2022-12-12T00:44:32.662Z,12.80
2022-12-12T00:47:04.245Z,13.60
2022-12-12T00:49:35.951Z,10.80
2022-12-12T00:52:07.788Z,9.60
2022-12-12T00:54:39.487Z,10.10
2022-12-12T00:57:11.061Z,11.00
2022-12-12T00:59:42.791Z,10.80
2022-12-12T01:02:14.368Z,11.50
2022-12-12T01:04:45.905Z,12.70
2022-12-12T01:07:17.492Z,12.10
2022-12-12T01:09:48.943Z,12.60
2022-12-12T01:12:20.441Z,13.90
2022-12-12T01:14:51.961Z,12.40
2022-12-12T01:17:23.660Z,11.90
2022-12-12T01:19:55.230Z,10.80
2022-12-12T01:22:27.035Z,10.40
2022-12-12T01:25:00.613Z,11.40
2022-12-12T01:27:32.159Z,10.60
2022-12-12T01:30:03.771Z,9.50
2022-12-12T01:32:35.339Z,8.60
2022-12-12T01:35:08.368Z,9.20
2022-12-12T01:37:41.700Z,9.20
2022-12-12T01:40:19.217Z,8.60
2022-12-12T01:42:51.264Z,10.70
2022-12-12T01:45:58.964Z,10.80
2022-12-12T01:48:34.912Z,10.60
2022-12-12T01:51:11.936Z,10.40
2022-12-12T01:53:44.258Z,11.00
2022-12-12T01:56:19.828Z,10.80
2022-12-12T01:58:53.813Z,10.50
2022-12-12T02:01:26.145Z,9.30
2022-12-12T02:03:58.385Z,9.50
2022-12-12T02:06:31.570Z,9.50
2022-12-12T02:09:06.565Z,8.20
2022-12-12T02:11:45.296Z,9.20
2022-12-12T02:14:21.642Z,7.40
2022-12-12T02:17:16.035Z,8.10
2022-12-12T02:20:33.457Z,6.60
2022-12-12T02:23:33.754Z,10.00
2022-12-12T02:26:30.080Z,10.80
2022-12-12T02:29:31.576Z,11.10
2022-12-12T02:32:09.744Z,7.30
2022-12-12T02:34:50.667Z,10.10
2022-12-12T02:37:29.380Z,10.10
2022-12-12T02:40:13.107Z,10.70
2022-12-12T02:45:23.974Z,9.20
2022-12-12T02:48:01.164Z,9.70
2022-12-12T02:50:34.254Z,10.60
2022-12-12T02:53:07.756Z,10.60
2022-12-12T02:55:39.308Z,10.10
2022-12-12T02:58:11.224Z,10.50
2022-12-12T03:00:52.632Z,9.60
2022-12-12T03:03:53.832Z,9.90
2022-12-12T03:06:57.591Z,10.40
2022-12-12T03:09:37.114Z,11.60
2022-12-12T03:12:15.685Z,13.30
2022-12-12T03:14:55.828Z,14.30
2022-12-12T03:17:35.339Z,16.00
2022-12-12T03:20:13.683Z,15.30
2022-12-12T03:22:54.094Z,15.00
2022-12-12T03:25:35.452Z,15.20
2022-12-12T03:28:18.446Z,14.20
2022-12-12T03:30:56.114Z,12.70
2022-12-12T03:33:34.491Z,14.70
2022-12-12T03:36:13.827Z,13.60
2022-12-12T03:38:56.932Z,14.00
2022-12-12T03:41:33.240Z,12.90
2022-12-12T03:44:12.461Z,12.10
2022-12-12T03:46:50.293Z,11.60
2022-12-12T03:49:26.658Z,8.70
2022-12-12T03:52:04.012Z,10.40
2022-12-12T03:54:40.112Z,9.60
2022-12-12T03:57:17.272Z,9.20
2022-12-12T03:59:53.832Z,10.50
2022-12-12T04:02:32.589Z,12.30
2022-12-12T04:05:12.343Z,11.10
2022-12-12T04:07:49.672Z,10.70
2022-12-12T04:10:41.612Z,12.30
2022-12-12T04:13:21.737Z,11.80
2022-12-12T04:16:00.696Z,12.30
2022-12-12T04:18:43.217Z,12.00
2022-12-12T04:21:52.289Z,11.30
2022-12-12T04:24:31.409Z,9.90
2022-12-12T04:27:10.347Z,10.80
2022-12-12T04:29:49.524Z,8.90
2022-12-12T04:32:25.601Z,9.40
2022-12-12T04:35:02.231Z,9.80
2022-12-12T04:37:37.216Z,8.20
2022-12-12T04:40:13.566Z,11.60
2022-12-12T04:42:53.244Z,11.70
2022-12-12T04:45:29.708Z,12.10
2022-12-12T04:48:04.296Z,12.80
2022-12-12T04:50:38.432Z,11.00
2022-12-12T04:53:18.541Z,11.90
2022-12-12T04:55:54.957Z,11.40
2022-12-12T04:58:28.229Z,12.10
2022-12-12T05:01:08.264Z,12.20
2022-12-12T05:03:47.801Z,12.70
2022-12-12T05:06:27.615Z,12.70
2022-12-12T05:09:02.009Z,11.30
2022-12-12T05:11:34.281Z,10.00
2022-12-12T05:14:08.585Z,9.70
2022-12-12T05:16:45.286Z,10.10
2022-12-12T05:19:17.154Z,10.60
2022-12-12T05:21:49.244Z,11.10
2022-12-12T05:24:20.781Z,13.90
2022-12-12T05:26:52.325Z,14.20
2022-12-12T05:29:24.165Z,14.20
2022-12-12T05:31:55.679Z,14.50
2022-12-12T05:34:27.280Z,13.30
2022-12-12T05:36:58.759Z,13.80
2022-12-12T05:39:30.260Z,13.30
2022-12-12T05:42:01.790Z,15.20
2022-12-12T05:44:33.423Z,14.50
2022-12-12T05:47:04.907Z,15.80
2022-12-12T05:49:36.521Z,15.70
2022-12-12T05:52:08.317Z,15.80
2022-12-12T05:54:40.391Z,15.10
2022-12-12T05:57:11.921Z,14.80
2022-12-12T05:59:43.509Z,13.50
2022-12-12T06:02:16.368Z,11.80
2022-12-12T06:04:48.003Z,11.30
2022-12-12T06:07:19.575Z,11.00
2022-12-12T06:09:51.082Z,11.30
2022-12-12T06:12:22.997Z,11.40
2022-12-12T06:14:54.541Z,11.50
2022-12-12T06:17:29.684Z,11.20
2022-12-12T06:20:05.241Z,12.50
2022-12-12T06:22:38.500Z,12.40
2022-12-12T06:25:12.746Z,12.50
2022-12-12T06:27:44.460Z,13.90
2022-12-12T06:30:17.548Z,14.80
2022-12-12T06:32:49.030Z,14.60
2022-12-12T06:35:21.012Z,13.70
2022-12-12T06:37:52.791Z,13.90
2022-12-12T06:40:24.551Z,15.80
2022-12-12T06:42:56.187Z,14.90
2022-12-12T06:45:27.838Z,14.40
2022-12-12T06:47:59.490Z,15.60
2022-12-12T06:50:31.157Z,15.50
2022-12-12T06:53:03.125Z,13.90
2022-12-12T06:55:34.906Z,12.60
2022-12-12T06:58:06.593Z,12.50
2022-12-12T07:00:38.132Z,13.00
2022-12-12T07:03:10.621Z,10.50
2022-12-12T07:05:42.355Z,12.70
2022-12-12T07:08:14.812Z,11.90
2022-12-12T07:10:46.603Z,13.90
2022-12-12T07:13:18.443Z,16.60
2022-12-12T07:15:51.237Z,14.40
2022-12-12T07:18:23.118Z,15.50
2022-12-12T07:20:55.305Z,14.20
2022-12-12T07:23:27.343Z,16.00
2022-12-12T07:25:58.987Z,17.40
2022-12-12T07:28:30.639Z,17.30
2022-12-12T07:31:06.347Z,15.50
2022-12-12T07:33:43.804Z,16.20
2022-12-12T07:36:17.006Z,16.70
2022-12-12T07:38:48.574Z,17.10
2022-12-12T07:41:21.582Z,17.40
2022-12-12T07:43:53.426Z,17.60
2022-12-12T07:46:26.659Z,16.30
2022-12-12T07:48:58.306Z,19.20
2022-12-12T07:51:31.078Z,17.00
2022-12-12T07:54:03.380Z,17.00
2022-12-12T07:56:35.281Z,14.80
2022-12-12T07:59:07.114Z,15.10
2022-12-12T08:01:39.672Z,15.70
2022-12-12T08:04:11.297Z,14.40
2022-12-12T08:06:42.862Z,15.70
2022-12-12T08:09:14.406Z,15.40
2022-12-12T08:11:46.776Z,17.30
2022-12-12T08:14:18.924Z,19.10
2022-12-12T08:16:50.410Z,16.40
2022-12-12T08:19:21.942Z,19.50
2022-12-12T08:21:53.629Z,19.30
2022-12-12T08:24:25.417Z,18.30
2022-12-12T08:26:57.220Z,19.40
2022-12-12T08:29:28.736Z,18.80
2022-12-12T08:32:00.323Z,19.60
2022-12-12T08:34:31.978Z,19.40
2022-12-12T08:37:03.533Z,19.70
2022-12-12T08:39:35.159Z,19.60
2022-12-12T08:42:07.032Z,19.90
2022-12-12T08:44:38.587Z,19.70
2022-12-12T08:47:10.654Z,17.40
2022-12-12T08:49:42.290Z,16.00
2022-12-12T08:52:13.854Z,15.10
2022-12-12T08:54:45.450Z,16.50
2022-12-12T08:57:18.432Z,14.90
2022-12-12T08:59:51.870Z,19.80
2022-12-12T09:02:23.512Z,21.60
2022-12-12T09:04:55.640Z,22.20
2022-12-12T09:07:27.149Z,23.60
2022-12-12T09:09:58.802Z,22.10
2022-12-12T09:12:30.653Z,22.80
2022-12-12T09:15:02.472Z,24.60
2022-12-12T09:17:33.982Z,23.40
2022-12-12T09:20:06.638Z,26.10
2022-12-12T09:22:38.196Z,26.30
2022-12-12T09:25:11.732Z,23.80
2022-12-12T09:27:43.660Z,26.10
2022-12-12T09:30:16.165Z,26.00
2022-12-12T09:32:47.774Z,21.00
2022-12-12T09:35:19.585Z,20.70
2022-12-12T09:37:51.097Z,17.60
2022-12-12T09:40:27.456Z,18.50
2022-12-12T09:43:00.010Z,17.80
2022-12-12T09:45:37.668Z,20.90
2022-12-12T09:48:12.666Z,20.70
2022-12-12T09:50:48.653Z,23.30
2022-12-12T09:53:23.381Z,20.60
2022-12-12T09:56:01.643Z,22.30
2022-12-12T09:58:44.831Z,26.20
2022-12-12T10:01:26.889Z,23.10
2022-12-12T10:04:11.871Z,21.60
2022-12-12T10:06:48.586Z,22.40
2022-12-12T10:09:33.766Z,21.40
2022-12-12T10:12:08.793Z,18.70
2022-12-12T10:14:43.932Z,16.30
2022-12-12T10:17:20.466Z,17.20
2022-12-12T10:19:55.815Z,16.50
2022-12-12T10:22:42.191Z,16.20
2022-12-12T10:25:24.523Z,16.00
2022-12-12T10:28:05.804Z,18.50
2022-12-12T10:30:42.741Z,20.40
2022-12-12T10:33:22.944Z,16.90
2022-12-12T10:36:01.964Z,18.30
2022-12-12T10:38:50.188Z,19.90
2022-12-12T10:41:29.150Z,19.40
2022-12-12T10:44:09.846Z,14.80
2022-12-12T10:46:45.729Z,18.60
2022-12-12T10:49:19.927Z,16.90
2022-12-12T10:51:53.014Z,19.40
2022-12-12T10:54:27.336Z,21.30
2022-12-12T10:57:14.111Z,21.00
2022-12-12T10:59:53.765Z,17.60
2022-12-12T11:02:40.701Z,16.60
2022-12-12T11:05:21.862Z,17.80
2022-12-12T11:08:04.717Z,16.70
2022-12-12T11:10:38.896Z,23.30
2022-12-12T11:13:19.200Z,26.00
2022-12-12T11:15:54.132Z,24.50
2022-12-12T11:18:26.951Z,21.60
2022-12-12T11:21:07.742Z,25.10
2022-12-12T11:23:42.842Z,22.30
2022-12-12T11:26:19.046Z,22.20
2022-12-12T11:28:56.687Z,22.10
2022-12-12T11:31:32.147Z,14.90
2022-12-12T11:34:06.733Z,17.80
2022-12-12T11:36:41.564Z,13.50
2022-12-12T11:39:22.606Z,15.30
2022-12-12T11:42:05.640Z,17.50
2022-12-12T11:44:39.063Z,17.50
2022-12-12T11:47:29.228Z,19.70
2022-12-12T11:50:04.981Z,20.30
2022-12-12T11:52:40.568Z,19.30
2022-12-12T11:55:17.655Z,16.10
2022-12-12T11:58:05.099Z,18.40
2022-12-12T12:00:46.369Z,19.80
2022-12-12T12:03:28.293Z,19.90
2022-12-12T12:06:20.797Z,17.10
2022-12-12T12:09:09.887Z,15.20
2022-12-12T12:11:51.161Z,16.20
2022-12-12T12:15:01.846Z,14.10
2022-12-12T12:17:53.019Z,13.70
2022-12-12T12:20:33.329Z,14.50
2022-12-12T12:23:15.989Z,18.90
2022-12-12T12:25:55.773Z,20.80
2022-12-12T12:28:56.701Z,20.60
2022-12-12T12:31:35.460Z,22.40
2022-12-12T12:34:19.337Z,22.40
2022-12-12T12:39:46.579Z,17.40
2022-12-12T12:42:34.373Z,16.70
2022-12-12T12:45:18.364Z,20.30
2022-12-12T12:47:54.957Z,19.50
2022-12-12T12:50:30.525Z,12.80
2022-12-12T12:53:08.448Z,12.90
2022-12-12T12:55:45.405Z,12.60
2022-12-12T12:58:23.556Z,13.00
2022-12-12T13:01:04.303Z,18.30
2022-12-12T13:03:44.686Z,18.40
2022-12-12T13:06:23.696Z,16.00
2022-12-12T13:09:04.460Z,15.80
2022-12-12T13:11:39.986Z,16.70
2022-12-12T13:14:17.824Z,18.40
2022-12-12T13:16:51.980Z,19.00
2022-12-12T13:19:33.389Z,16.80
2022-12-12T13:22:10.547Z,15.10
2022-12-12T13:24:53.625Z,12.40
2022-12-12T13:27:35.705Z,13.00
2022-12-12T13:30:16.740Z,13.30
2022-12-12T13:33:14.777Z,11.70
2022-12-12T13:35:51.058Z,15.80
2022-12-12T13:38:29.032Z,17.80
2022-12-12T13:41:02.738Z,17.00
2022-12-12T13:43:48.256Z,15.80
2022-12-12T13:46:40.987Z,16.60
2022-12-12T13:49:28.411Z,14.50
2022-12-12T13:52:24.872Z,14.20
2022-12-12T13:55:19.003Z,14.30
2022-12-12T14:01:10.593Z,13.80
2022-12-12T14:03:46.987Z,14.20
2022-12-12T14:06:22.137Z,12.00
2022-12-12T14:08:54.940Z,11.00
2022-12-12T14:11:31.642Z,10.30
2022-12-12T14:14:17.018Z,11.50
2022-12-12T14:16:56.470Z,8.60
2022-12-12T14:19:35.061Z,13.50
2022-12-12T14:22:06.727Z,15.10
2022-12-12T14:25:08.685Z,14.80
2022-12-12T14:28:13.991Z,12.60
2022-12-12T14:31:02.766Z,13.50
2022-12-12T14:34:03.258Z,12.50
2022-12-12T14:37:03.750Z,13.10
2022-12-12T14:39:52.067Z,13.00
2022-12-12T14:43:20.567Z,14.40
2022-12-12T14:45:37.691Z,13.70
2022-12-12T14:48:30.052Z,13.10
2022-12-12T14:51:10.219Z,10.70
2022-12-12T14:53:48.028Z,10.60
2022-12-12T14:56:22.035Z,10.00
2022-12-12T14:59:02.738Z,9.10
2022-12-12T15:01:37.390Z,13.20
2022-12-12T15:04:11.953Z,16.60
2022-12-12T15:06:44.519Z,17.60
2022-12-12T15:09:24.725Z,17.40
2022-12-12T15:12:06.275Z,13.20
2022-12-12T15:14:39.042Z,14.90
2022-12-12T15:17:16.538Z,16.10
2022-12-12T15:19:51.507Z,16.20
2022-12-12T15:22:26.896Z,16.70
2022-12-12T15:25:00.952Z,14.30
2022-12-12T15:27:38.655Z,12.60
2022-12-12T15:30:21.886Z,9.80
2022-12-12T15:32:53.824Z,11.70
2022-12-12T15:35:26.032Z,11.80
2022-12-12T15:38:00.406Z,16.00
2022-12-12T15:40:34.010Z,18.30
2022-12-12T15:43:08.551Z,16.80
2022-12-12T15:45:43.319Z,18.30
2022-12-12T15:48:17.664Z,17.70
2022-12-12T15:50:57.944Z,20.00
2022-12-12T15:53:33.681Z,19.50
2022-12-12T15:56:08.517Z,18.30
2022-12-12T15:58:43.100Z,19.00
2022-12-12T16:01:22.399Z,20.20
2022-12-12T16:04:00.384Z,19.80
2022-12-12T16:06:34.239Z,19.20
2022-12-12T16:09:17.507Z,17.60
2022-12-12T16:11:51.175Z,17.00
2022-12-12T16:14:38.975Z,16.60
2022-12-12T16:17:14.667Z,17.00
2022-12-12T16:19:53.865Z,16.80
2022-12-12T16:22:37.235Z,15.30
2022-12-12T16:25:19.783Z,19.00
2022-12-12T16:27:56.633Z,16.50
2022-12-12T16:30:28.957Z,22.70
2022-12-12T16:33:11.590Z,32.20
2022-12-12T16:35:43.205Z,30.10
2022-12-12T16:38:18.570Z,27.40
2022-12-12T16:40:52.457Z,23.20
2022-12-12T16:43:25.204Z,17.50
2022-12-12T16:45:58.506Z,18.40
2022-12-12T16:48:34.950Z,16.20
2022-12-12T16:51:08.810Z,15.90
2022-12-12T16:53:40.342Z,15.70
2022-12-12T16:56:12.821Z,13.40
2022-12-12T16:58:44.502Z,15.60
2022-12-12T17:01:17.226Z,17.70
2022-12-12T17:03:49.015Z,16.30
2022-12-12T17:06:20.656Z,13.50
2022-12-12T17:08:52.160Z,12.20
2022-12-12T17:11:23.656Z,10.00
2022-12-12T17:13:55.250Z,9.90
2022-12-12T17:16:28.061Z,9.50
2022-12-12T17:18:59.883Z,11.80
2022-12-12T17:21:31.432Z,11.10
2022-12-12T17:24:03.008Z,10.40
2022-12-12T17:26:35.168Z,11.00
2022-12-12T17:29:07.815Z,12.00
2022-12-12T17:31:39.510Z,11.40
2022-12-12T17:34:11.394Z,11.30
2022-12-12T17:36:43.064Z,10.50
2022-12-12T17:39:14.594Z,9.50
2022-12-12T17:41:46.635Z,10.50
2022-12-12T17:44:18.520Z,11.90
2022-12-12T17:46:50.004Z,11.60
2022-12-12T17:49:21.488Z,11.40
2022-12-12T17:51:53.062Z,11.20
2022-12-12T17:54:26.680Z,10.20
2022-12-12T17:56:58.765Z,9.20
2022-12-12T17:59:30.354Z,8.90
2022-12-12T18:02:01.862Z,8.90
2022-12-12T18:04:37.012Z,7.90
2022-12-12T18:07:09.422Z,9.10
2022-12-12T18:09:40.947Z,8.10
2022-12-12T18:12:12.547Z,9.20
2022-12-12T18:14:44.158Z,12.40
2022-12-12T18:17:16.406Z,11.10
2022-12-12T18:19:48.628Z,11.00
2022-12-12T18:22:20.139Z,12.40
2022-12-12T18:24:52.644Z,13.10
2022-12-12T18:27:24.490Z,14.30
2022-12-12T18:29:56.061Z,10.70
2022-12-12T18:32:27.697Z,10.80
2022-12-12T18:34:59.301Z,10.90
2022-12-12T18:37:30.851Z,9.80
2022-12-12T18:40:02.419Z,8.90
2022-12-12T18:42:33.924Z,8.90
2022-12-12T18:45:09.166Z,8.80
2022-12-12T18:47:40.966Z,8.10
2022-12-12T18:50:13.279Z,8.60
2022-12-12T18:52:45.022Z,7.30
2022-12-12T18:55:16.549Z,9.20
2022-12-12T18:57:48.041Z,14.20
2022-12-12T19:00:20.634Z,13.80
2022-12-12T19:02:52.334Z,23.10
2022-12-12T19:05:24.013Z,12.90
2022-12-12T19:07:55.588Z,11.40
2022-12-12T19:10:27.336Z,10.30
2022-12-12T19:12:58.840Z,10.50
2022-12-12T19:15:30.435Z,11.00
2022-12-12T19:18:01.953Z,9.80
2022-12-12T19:20:33.512Z,8.80
2022-12-12T19:23:05.059Z,8.20
2022-12-12T19:25:42.632Z,8.90
2022-12-12T19:28:14.711Z,11.80
2022-12-12T19:30:46.319Z,8.50
2022-12-12T19:33:17.838Z,9.20
2022-12-12T19:35:49.404Z,8.10
2022-12-12T19:38:24.705Z,11.30
2022-12-12T19:40:56.486Z,20.20
2022-12-12T19:43:31.501Z,14.90
2022-12-12T19:46:11.517Z,10.90
2022-12-12T19:48:43.620Z,12.00
2022-12-12T19:51:17.088Z,13.30
2022-12-12T19:53:50.460Z,14.00
2022-12-12T19:56:23.596Z,9.40
2022-12-12T19:58:55.476Z,12.00
2022-12-12T20:01:33.145Z,17.80
2022-12-12T20:04:07.477Z,18.10
2022-12-12T20:06:45.249Z,8.50
2022-12-12T20:09:19.902Z,7.30
2022-12-12T20:11:51.937Z,8.90
2022-12-12T20:14:25.341Z,7.50
2022-12-12T20:16:57.720Z,6.20
2022-12-12T20:19:30.684Z,8.00
2022-12-12T20:22:03.288Z,8.30
2022-12-12T20:24:37.387Z,7.30
2022-12-12T20:29:40.459Z,8.40
2022-12-12T20:32:13.506Z,8.30
2022-12-12T20:34:45.578Z,8.70
2022-12-12T20:37:20.174Z,6.70
2022-12-12T20:39:52.117Z,6.90
2022-12-12T20:42:23.712Z,7.40
2022-12-12T20:44:55.408Z,6.70
2022-12-12T20:47:27.275Z,5.20
2022-12-12T20:50:01.055Z,8.30
2022-12-12T20:52:34.424Z,10.20
2022-12-12T20:55:07.549Z,9.30
2022-12-12T20:57:39.274Z,9.10
2022-12-12T21:00:13.618Z,8.80
2022-12-12T21:02:45.360Z,9.70
2022-12-12T21:05:17.234Z,10.60
2022-12-12T21:07:48.898Z,10.40
2022-12-12T21:10:20.421Z,8.00
2022-12-12T21:12:51.884Z,7.10
2022-12-12T21:15:23.933Z,7.70
2022-12-12T21:17:55.634Z,7.80
2022-12-12T21:20:27.198Z,10.80
2022-12-12T21:22:59.278Z,10.20
2022-12-12T21:25:30.797Z,10.20
2022-12-12T21:28:02.296Z,9.10
2022-12-12T21:30:33.787Z,9.30
2022-12-12T21:33:05.595Z,6.60
2022-12-12T21:35:38.049Z,6.20
2022-12-12T21:38:09.613Z,6.50
2022-12-12T21:40:41.143Z,9.00
2022-12-12T21:43:12.733Z,11.60
2022-12-12T21:45:44.474Z,10.10
2022-12-12T21:48:16.106Z,9.30
2022-12-12T21:50:47.636Z,9.10
2022-12-12T21:53:38.056Z,8.20
2022-12-12T21:56:12.665Z,8.50
2022-12-12T21:58:45.708Z,8.60
2022-12-12T22:01:19.437Z,8.10
2022-12-12T22:03:51.660Z,8.50
2022-12-12T22:06:25.285Z,6.70
2022-12-12T22:08:58.941Z,5.90
2022-12-12T22:11:40.894Z,7.40
2022-12-12T22:14:23.488Z,7.10
2022-12-12T22:16:54.933Z,8.20
2022-12-12T22:19:26.520Z,7.20
2022-12-12T22:21:58.011Z,7.40
2022-12-12T22:24:29.810Z,8.50
2022-12-12T22:27:02.466Z,8.00
2022-12-12T22:29:34.306Z,6.40
2022-12-12T22:32:06.217Z,7.70
2022-12-12T22:34:46.817Z,6.80
2022-12-12T22:37:18.312Z,7.20
2022-12-12T22:39:49.813Z,7.70
2022-12-12T22:42:21.320Z,8.50
2022-12-12T22:44:52.940Z,9.00
2022-12-12T22:47:24.907Z,8.70
2022-12-12T22:49:56.427Z,10.00
2022-12-12T22:52:28.740Z,8.00
2022-12-12T22:55:00.268Z,8.50
2022-12-12T22:57:31.777Z,8.80
2022-12-12T23:00:03.599Z,9.00
2022-12-12T23:02:35.136Z,7.20
2022-12-12T23:05:07.298Z,6.00
2022-12-12T23:07:39.096Z,6.20
2022-12-12T23:10:12.185Z,6.60
2022-12-12T23:12:43.684Z,6.90
2022-12-12T23:15:15.356Z,8.00
2022-12-12T23:17:47.086Z,8.00
2022-12-12T23:20:20.242Z,8.20
2022-12-12T23:22:51.957Z,7.50
2022-12-12T23:25:23.616Z,7.70
2022-12-12T23:27:55.146Z,7.60
2022-12-12T23:30:26.683Z,6.30
2022-12-12T23:32:58.187Z,5.20
2022-12-12T23:35:29.695Z,7.30
2022-12-12T23:38:01.189Z,7.30
2022-12-12T23:40:32.888Z,7.30
2022-12-12T23:43:04.405Z,7.90
2022-12-12T23:45:37.413Z,8.00
2022-12-12T23:48:09.882Z,8.00
2022-12-12T23:50:41.457Z,6.30
2022-12-12T23:53:12.962Z,6.20
2022-12-12T23:55:44.942Z,6.70
2022-12-12T23:58:16.505Z,7.50
